Time;durP1;ratioP1;P1;durP2;ratioP2;P2;SDS_P1;SDS_P2;PMS_P1;PMS_P2;Temp;Humidity;BMP_temperature;BMP_pressure;BME280_temperature;BME280_humidity;BME280_pressure;Samples;Min_cycle;Max_cycle;Signal;HPM_P1;HPM_P2
2021/09/29 00:01:21;;;;;;;3.28;1.30;;;;;;;20.98;53.29;101156.97;5025604;28;20045;-61
2021/09/29 00:03:46;;;;;;;4.00;1.70;;;;;;;20.96;53.36;101153.66;5031135;28;20033;-61
2021/09/29 00:06:12;;;;;;;2.28;1.30;;;;;;;20.97;53.39;101163.31;5031127;28;20057;-61
2021/09/29 00:08:37;;;;;;;2.60;1.30;;;;;;;20.96;53.41;101161.69;5031242;28;20690;-62
2021/09/29 00:11:02;;;;;;;2.75;1.30;;;;;;;20.95;53.30;101158.19;5031325;28;20041;-61
2021/09/29 00:13:29;;;;;;;2.45;1.15;;;;;;;20.96;53.51;101161.69;5030840;28;20095;-62
2021/09/29 00:15:55;;;;;;;3.33;1.30;;;;;;;20.94;53.02;101162.69;5030707;28;20180;-63
2021/09/29 00:18:22;;;;;;;2.72;1.50;;;;;;;20.96;53.36;101172.34;5031000;28;20547;-61
2021/09/29 00:20:48;;;;;;;2.60;1.20;;;;;;;20.94;53.36;101170.69;5030508;28;20489;-61
2021/09/29 00:23:13;;;;;;;1.95;1.20;;;;;;;20.94;53.16;101184.03;5030570;28;20056;-62
2021/09/29 00:25:39;;;;;;;4.38;1.40;;;;;;;20.94;53.10;101172.53;5013285;28;20069;-62
2021/09/29 00:28:04;;;;;;;2.42;1.00;;;;;;;20.94;53.40;101181.38;5013347;28;20140;-61
2021/09/29 00:30:50;;;;;;;3.88;1.23;;;;;;;20.93;53.32;101174.38;5030188;28;20183;-61
2021/09/29 00:33:19;;;;;;;2.60;1.23;;;;;;;20.91;53.21;101189.75;5015838;28;20421;-62
2021/09/29 00:35:45;;;;;;;3.10;1.10;;;;;;;20.92;53.50;101199.41;5012534;28;20029;-63
2021/09/29 00:38:11;;;;;;;1.95;1.10;;;;;;;20.92;53.43;101201.25;5030874;28;20469;-63
2021/09/29 00:40:37;;;;;;;5.47;1.05;;;;;;;20.92;53.22;101210.06;5030543;28;20034;-63
2021/09/29 00:43:02;;;;;;;3.22;1.40;;;;;;;20.92;53.33;101207.41;5030591;28;20556;-62
2021/09/29 00:45:28;;;;;;;4.25;1.48;;;;;;;20.90;53.24;101206.78;5030052;28;20500;-63
2021/09/29 00:47:54;;;;;;;2.97;1.52;;;;;;;20.91;53.35;101212.94;5012971;28;20029;-63
2021/09/29 00:50:19;;;;;;;2.97;1.70;;;;;;;20.91;53.39;101231.59;5029836;28;20476;-63
2021/09/29 00:52:45;;;;;;;3.42;1.58;;;;;;;20.90;53.17;101222.78;5030525;28;20413;-63
2021/09/29 00:55:13;;;;;;;3.75;1.30;;;;;;;20.89;53.31;101234.47;5030369;28;20033;-62
2021/09/29 00:57:38;;;;;;;4.72;1.90;;;;;;;20.90;53.38;101233.44;5012552;28;20037;-63
2021/09/29 01:00:06;;;;;;;5.10;1.80;;;;;;;20.90;53.12;101237.97;4996286;28;20761;-62
2021/09/29 01:02:31;;;;;;;4.15;1.33;;;;;;;20.89;53.35;101239.81;5010893;28;20117;-63
2021/09/29 01:04:57;;;;;;;5.93;1.50;;;;;;;20.90;53.48;101246.78;5010279;28;20116;-63
2021/09/29 01:07:27;;;;;;;5.28;1.80;;;;;;;20.89;53.53;101249.66;5010170;28;20042;-63
2021/09/29 01:09:52;;;;;;;4.45;1.65;;;;;;;20.90;53.24;101251.28;5010366;28;20030;-63
2021/09/29 01:12:33;;;;;;;3.30;1.65;;;;;;;20.87;53.56;101249.84;5010113;28;20048;-63
2021/09/29 01:15:11;;;;;;;4.60;1.67;;;;;;;20.87;53.12;101255.19;5009803;28;20034;-62
2021/09/29 01:17:44;;;;;;;4.38;1.60;;;;;;;20.88;53.30;101264.81;5009953;28;20105;-63
2021/09/29 01:20:22;;;;;;;5.30;1.70;;;;;;;20.86;53.61;101264.19;5009850;28;20072;-63
2021/09/29 01:23:10;;;;;;;4.75;1.60;;;;;;;20.85;53.43;101259.88;5010458;28;20029;-63
2021/09/29 01:25:57;;;;;;;5.95;1.77;;;;;;;20.84;53.26;101268.91;4992284;28;20301;-63
2021/09/29 01:29:03;;;;;;;3.50;1.75;;;;;;;20.82;53.57;101272.75;5010329;28;20099;-62
2021/09/29 01:31:30;;;;;;;5.45;1.60;;;;;;;20.88;53.10;101278.16;4975934;28;20050;-62
2021/09/29 01:33:56;;;;;;;4.68;1.70;;;;;;;20.87;53.13;101281.84;5009803;28;20034;-63
2021/09/29 01:36:23;;;;;;;2.60;1.20;;;;;;;20.87;53.04;101281.84;5009838;28;20034;-63
2021/09/29 01:38:55;;;;;;;4.85;1.63;;;;;;;20.88;53.51;101286.16;5009932;28;20046;-63
2021/09/29 01:41:31;;;;;;;7.45;1.80;;;;;;;20.88;53.53;101290.69;5009990;28;20057;-62
2021/09/29 01:43:58;;;;;;;3.25;1.40;;;;;;;20.88;53.30;101288.81;5009927;28;20045;-62
2021/09/29 01:46:28;;;;;;;3.65;1.63;;;;;;;20.87;53.59;101289.84;4991340;28;20041;-64
2021/09/29 01:49:24;;;;;;;3.63;1.50;;;;;;;20.83;53.23;101306.44;4991548;28;20454;-62
2021/09/29 01:51:51;;;;;;;3.47;1.30;;;;;;;20.86;53.19;101309.53;5009624;28;20115;-63
2021/09/29 01:54:19;;;;;;;4.05;1.60;;;;;;;20.86;53.50;101309.53;5009764;28;20030;-62
2021/09/29 01:56:45;;;;;;;3.90;1.40;;;;;;;20.87;53.18;101311.19;5009689;28;20034;-63
2021/09/29 01:59:11;;;;;;;3.45;1.20;;;;;;;20.87;53.58;101313.03;5009344;28;20485;-63
2021/09/29 02:01:39;;;;;;;5.00;1.60;;;;;;;20.87;53.17;101315.69;5016042;28;20034;-63
2021/09/29 02:04:06;;;;;;;3.85;1.30;;;;;;;20.87;53.09;101316.50;5028149;28;20045;-63
2021/09/29 02:06:46;;;;;;;3.90;1.60;;;;;;;20.83;53.25;101320.59;5028396;28;20388;-62
2021/09/29 02:09:12;;;;;;;5.10;1.70;;;;;;;20.86;53.15;101320.19;5029366;28;20136;-62
2021/09/29 02:11:38;;;;;;;4.90;1.40;;;;;;;20.86;53.50;101317.53;5029118;28;20151;-62
2021/09/29 02:14:05;;;;;;;5.35;1.80;;;;;;;20.86;53.27;101320.19;5029301;28;20095;-64
2021/09/29 02:16:31;;;;;;;5.05;1.83;;;;;;;20.86;53.16;101328.19;5028420;28;20034;-62
2021/09/29 02:18:56;;;;;;;7.47;1.40;;;;;;;20.86;53.46;101330.88;5011003;28;20114;-63
2021/09/29 02:21:22;;;;;;;4.90;1.60;;;;;;;20.86;53.48;101327.38;5028766;28;20099;-62
2021/09/29 02:23:47;;;;;;;5.30;1.48;;;;;;;20.84;53.38;101324.91;5011198;28;20050;-62
2021/09/29 02:26:13;;;;;;;2.78;1.13;;;;;;;20.86;53.19;101332.72;5028986;28;20040;-62
2021/09/29 02:28:38;;;;;;;4.22;1.30;;;;;;;20.84;53.13;101332.91;5032269;28;20033;-62
2021/09/29 02:31:03;;;;;;;2.75;1.27;;;;;;;20.84;53.48;101335.56;5032891;28;20461;-62
2021/09/29 02:33:29;;;;;;;2.80;1.30;;;;;;;20.83;53.17;101323.25;5032716;28;20118;-62
2021/09/29 02:35:54;;;;;;;2.95;1.27;;;;;;;20.84;53.25;101337.41;5032621;28;20522;-62
2021/09/29 02:38:20;;;;;;;4.22;1.50;;;;;;;20.82;53.41;101342.91;5033036;28;20033;-62
2021/09/29 02:40:45;;;;;;;2.88;1.10;;;;;;;20.83;52.94;101349.09;5032735;28;20034;-63
2021/09/29 02:43:11;;;;;;;4.88;1.15;;;;;;;20.82;53.35;101352.75;5015297;28;20064;-62
2021/09/29 02:45:36;;;;;;;3.05;1.35;;;;;;;20.82;53.03;101347.41;5032364;28;20169;-62
2021/09/29 02:48:02;;;;;;;3.35;1.13;;;;;;;20.81;53.12;101351.94;5015164;28;20041;-62
2021/09/29 02:50:27;;;;;;;3.88;1.23;;;;;;;20.82;52.86;101358.09;5031804;28;20469;-62
2021/09/29 02:52:53;;;;;;;3.33;1.45;;;;;;;20.81;53.15;101361.78;5032582;28;20084;-63
2021/09/29 02:55:18;;;;;;;2.97;1.10;;;;;;;20.81;53.17;101354.59;4998491;28;20041;-63
2021/09/29 02:57:44;;;;;;;3.88;1.58;;;;;;;20.79;52.99;101361.97;5025450;28;20049;-62
2021/09/29 03:00:10;;;;;;;4.38;1.17;;;;;;;20.80;53.08;101368.94;5031606;28;20040;-63
2021/09/29 03:02:35;;;;;;;3.03;1.20;;;;;;;20.80;52.93;101362.78;5028252;28;20052;-62
2021/09/29 03:05:01;;;;;;;4.32;1.10;;;;;;;20.79;52.79;101372.63;5031835;28;20393;-63
2021/09/29 03:07:26;;;;;;;3.40;1.20;;;;;;;20.79;52.94;101380.63;5031967;28;20471;-62
2021/09/29 03:09:52;;;;;;;2.28;1.17;;;;;;;20.78;53.14;101381.66;5032775;28;20030;-62
2021/09/29 03:12:17;;;;;;;2.53;1.27;;;;;;;20.79;52.75;101385.13;5032008;28;20037;-62
2021/09/29 03:14:43;;;;;;;2.47;1.13;;;;;;;20.79;52.97;101388.63;5014428;28;20140;-62
2021/09/29 03:17:08;;;;;;;2.05;0.90;;;;;;;20.78;52.92;101399.50;5014239;28;20034;-63
2021/09/29 03:19:34;;;;;;;4.60;1.20;;;;;;;20.78;53.00;101400.31;5031308;28;20069;-62
2021/09/29 03:22:01;;;;;;;2.97;1.13;;;;;;;20.77;52.61;101392.50;5032266;28;20115;-62
2021/09/29 03:24:27;;;;;;;3.15;0.90;;;;;;;20.77;52.69;101412.00;5014199;28;20049;-62
2021/09/29 03:26:52;;;;;;;2.72;1.08;;;;;;;20.77;52.58;101420.00;5014405;28;20034;-63
2021/09/29 03:29:18;;;;;;;1.95;0.93;;;;;;;20.77;52.83;101420.00;5032131;28;20120;-63
2021/09/29 03:31:44;;;;;;;3.20;1.10;;;;;;;20.76;52.46;101423.69;5031156;28;20136;-63
2021/09/29 03:34:09;;;;;;;2.45;1.20;;;;;;;20.76;52.57;101428.19;5031489;28;20348;-62
2021/09/29 03:36:35;;;;;;;2.33;1.10;;;;;;;20.77;52.80;101437.84;5031269;28;20041;-63
2021/09/29 03:39:00;;;;;;;2.92;1.10;;;;;;;20.75;52.74;101445.19;5030998;28;20037;-62
2021/09/29 03:41:28;;;;;;;3.47;1.00;;;;;;;20.75;52.32;101440.69;5031467;28;20041;-65
2021/09/29 03:43:53;;;;;;;3.05;0.90;;;;;;;20.75;52.26;101446.03;5031468;28;20528;-63
2021/09/29 03:46:19;;;;;;;3.08;1.13;;;;;;;20.75;52.36;101453.19;5013569;28;20041;-62
2021/09/29 03:48:45;;;;;;;1.45;0.80;;;;;;;20.74;52.29;101456.88;5014102;28;20045;-63
2021/09/29 03:51:11;;;;;;;2.20;0.80;;;;;;;20.74;52.21;101459.56;5031505;28;20041;-63
2021/09/29 03:53:36;;;;;;;2.38;1.00;;;;;;;20.74;52.26;101464.88;5031287;28;20039;-62
2021/09/29 03:56:02;;;;;;;2.63;0.85;;;;;;;20.73;52.24;101463.22;5031402;28;20041;-62
2021/09/29 03:58:27;;;;;;;2.40;0.90;;;;;;;20.74;52.12;101456.88;5031448;28;20048;-65
2021/09/29 04:00:53;;;;;;;2.78;0.82;;;;;;;20.74;52.13;101472.88;5031093;28;20132;-63
2021/09/29 04:03:18;;;;;;;3.45;1.15;;;;;;;20.72;52.09;101475.75;5013966;28;20069;-63
2021/09/29 04:05:44;;;;;;;2.97;0.95;;;;;;;20.73;51.94;101481.91;5030595;28;20088;-62
2021/09/29 04:08:10;;;;;;;2.65;1.02;;;;;;;20.71;51.99;101484.75;5013794;28;20037;-63
2021/09/29 04:10:36;;;;;;;1.50;0.70;;;;;;;20.71;51.93;101476.75;5013232;28;20338;-63
2021/09/29 04:13:02;;;;;;;2.58;0.75;;;;;;;20.71;52.10;101482.09;5031487;28;20099;-62
2021/09/29 04:15:28;;;;;;;2.85;1.05;;;;;;;20.72;52.22;101496.25;5030711;28;20095;-63
2021/09/29 04:17:54;;;;;;;1.73;1.02;;;;;;;20.70;52.04;101507.09;5031383;28;20148;-62
2021/09/29 04:20:19;;;;;;;1.70;0.80;;;;;;;20.70;51.72;101515.09;5030597;28;20152;-63
2021/09/29 04:22:45;;;;;;;3.15;0.95;;;;;;;20.70;51.76;101515.09;5030760;28;20206;-63
2021/09/29 04:25:11;;;;;;;1.83;0.75;;;;;;;20.69;51.83;101518.78;5030591;28;20050;-62
2021/09/29 04:27:37;;;;;;;2.75;1.02;;;;;;;20.69;52.10;101528.63;5030864;28;20108;-63
2021/09/29 04:30:03;;;;;;;4.78;0.80;;;;;;;20.69;51.90;101523.28;5030783;28;20033;-62
2021/09/29 04:32:29;;;;;;;2.45;0.80;;;;;;;20.69;52.04;101536.63;5030560;28;20111;-65
2021/09/29 04:34:54;;;;;;;3.33;1.10;;;;;;;20.68;51.96;101535.78;5030839;28;20432;-63
2021/09/29 04:37:20;;;;;;;1.88;0.70;;;;;;;20.67;51.69;101530.63;5013075;28;20487;-62
2021/09/29 04:39:45;;;;;;;3.20;0.70;;;;;;;20.68;51.97;101543.78;5012440;28;20037;-63
2021/09/29 04:42:11;;;;;;;2.20;0.70;;;;;;;20.67;51.76;101544.81;5030870;28;20034;-62
2021/09/29 04:44:36;;;;;;;1.85;0.80;;;;;;;20.67;51.82;101552.81;5012973;28;20089;-63
2021/09/29 04:47:02;;;;;;;1.23;0.63;;;;;;;20.67;51.75;101550.13;5030407;28;20056;-63
2021/09/29 04:49:28;;;;;;;2.60;0.60;;;;;;;20.67;52.04;101559.94;5029804;28;20064;-62
2021/09/29 04:51:53;;;;;;;2.42;0.80;;;;;;;20.67;51.98;101568.78;5029873;28;20114;-63
2021/09/29 04:54:19;;;;;;;2.05;0.70;;;;;;;20.66;51.54;101567.09;5030538;28;20036;-63
2021/09/29 04:56:45;;;;;;;1.45;0.60;;;;;;;20.67;51.69;101570.59;5030280;28;20041;-62
2021/09/29 04:59:11;;;;;;;1.88;0.70;;;;;;;20.67;51.53;101575.94;5030451;28;20063;-63
2021/09/29 05:01:40;;;;;;;1.98;0.70;;;;;;;20.65;51.45;101581.44;5023807;28;20041;-63
2021/09/29 05:04:05;;;;;;;2.17;0.95;;;;;;;20.65;51.61;101573.47;5012172;28;20128;-62
2021/09/29 05:06:31;;;;;;;2.60;0.90;;;;;;;20.64;51.74;101579.81;5030102;28;20030;-62
2021/09/29 05:08:58;;;;;;;2.78;0.95;;;;;;;20.65;51.82;101581.44;5012363;28;20124;-62
2021/09/29 05:11:43;;;;;;;2.10;0.75;;;;;;;20.59;51.46;101579.53;5030013;28;20048;-63
2021/09/29 05:14:09;;;;;;;1.23;0.60;;;;;;;20.62;51.56;101588.00;5030171;28;20132;-63
2021/09/29 05:16:34;;;;;;;1.95;0.68;;;;;;;20.62;51.63;101596.00;4995224;28;20144;-63
2021/09/29 05:19:00;;;;;;;1.83;0.60;;;;;;;20.62;51.41;101595.16;4995499;28;20049;-63
2021/09/29 05:21:25;;;;;;;2.05;0.90;;;;;;;20.62;51.43;101611.97;5029883;28;20060;-63
2021/09/29 05:23:51;;;;;;;1.95;0.60;;;;;;;20.61;51.61;101621.00;5029185;28;20058;-62
2021/09/29 05:26:18;;;;;;;2.22;0.70;;;;;;;20.61;51.27;101614.84;5029907;28;20036;-63
2021/09/29 05:28:47;;;;;;;1.65;0.70;;;;;;;20.61;51.09;101628.16;5030093;28;20200;-62
2021/09/29 05:31:13;;;;;;;1.48;0.55;;;;;;;20.61;51.22;101625.50;5029565;28;20029;-63
2021/09/29 05:33:38;;;;;;;1.27;0.52;;;;;;;20.60;51.11;101632.66;5029513;28;20435;-63
2021/09/29 05:36:04;;;;;;;1.33;0.75;;;;;;;20.60;51.15;101637.19;5011576;28;20034;-62
2021/09/29 05:38:29;;;;;;;2.40;0.55;;;;;;;20.60;51.47;101638.00;4995665;28;20038;-62
2021/09/29 05:40:55;;;;;;;6.50;0.75;;;;;;;20.59;51.45;101639.00;5018675;28;20049;-61
2021/09/29 05:43:20;;;;;;;6.35;0.77;;;;;;;20.60;51.39;101653.16;5009468;28;20073;-62
2021/09/29 05:45:46;;;;;;;6.55;0.70;;;;;;;20.59;51.51;101649.69;5008446;28;20030;-63
2021/09/29 05:48:11;;;;;;;2.88;0.70;;;;;;;20.59;51.47;101651.50;4990432;28;20042;-63
2021/09/29 05:50:37;;;;;;;2.35;0.70;;;;;;;20.59;51.16;101663.00;5007128;28;20038;-63
2021/09/29 05:53:03;;;;;;;4.05;0.80;;;;;;;20.59;51.23;101664.84;5007876;28;20040;-62
2021/09/29 05:55:29;;;;;;;2.05;0.57;;;;;;;20.59;51.41;101667.50;4989874;28;20050;-62
2021/09/29 05:57:54;;;;;;;1.00;0.55;;;;;;;20.59;51.20;101673.66;5008518;28;20092;-63
2021/09/29 06:00:20;;;;;;;2.50;1.00;;;;;;;20.57;51.22;101685.53;4990442;28;20470;-63
2021/09/29 06:02:46;;;;;;;4.85;0.80;;;;;;;20.57;51.26;101686.34;5025857;28;20037;-63
2021/09/29 06:05:11;;;;;;;1.63;0.60;;;;;;;20.56;51.21;101691.88;5011060;28;20439;-63
2021/09/29 06:07:37;;;;;;;1.50;0.63;;;;;;;20.57;51.06;101701.53;5028982;28;20037;-63
2021/09/29 06:10:05;;;;;;;4.20;0.73;;;;;;;20.56;51.33;101699.88;5029049;28;20029;-63
2021/09/29 06:12:30;;;;;;;2.03;0.60;;;;;;;20.56;51.02;101710.53;5029365;28;20033;-62
2021/09/29 06:14:56;;;;;;;2.63;0.77;;;;;;;20.56;50.69;101721.19;5028770;28;20036;-62
2021/09/29 06:17:35;;;;;;;4.03;0.75;;;;;;;20.55;51.08;101717.69;5028983;28;20469;-63
2021/09/29 06:20:00;;;;;;;2.25;0.60;;;;;;;20.56;50.96;101718.53;5012687;28;20042;-63
2021/09/29 06:22:26;;;;;;;2.88;0.82;;;;;;;20.54;51.06;101720.56;5029011;28;20397;-61
2021/09/29 06:24:51;;;;;;;2.08;0.70;;;;;;;20.54;50.72;101726.72;5028987;28;20488;-64
2021/09/29 06:27:17;;;;;;;2.35;0.80;;;;;;;20.53;50.75;101733.06;5029482;28;20424;-64
2021/09/29 06:29:43;;;;;;;3.13;0.80;;;;;;;20.54;50.58;101741.88;5029258;28;20095;-64
2021/09/29 06:32:09;;;;;;;3.25;0.80;;;;;;;20.54;50.97;101753.38;4993403;28;20041;-64
2021/09/29 06:34:34;;;;;;;3.00;1.00;;;;;;;20.53;50.96;101750.88;5008327;28;20516;-64
2021/09/29 06:37:00;;;;;;;2.15;0.70;;;;;;;20.52;51.02;101751.88;5012814;28;20033;-64
2021/09/29 06:39:25;;;;;;;2.33;0.70;;;;;;;20.53;51.04;101757.03;5010728;28;20455;-64
2021/09/29 06:41:51;;;;;;;2.78;0.52;;;;;;;20.52;51.05;101760.72;5007785;28;20029;-64
2021/09/29 06:44:17;;;;;;;3.65;0.88;;;;;;;20.53;51.01;101778.38;5002885;28;20042;-61
2021/09/29 06:46:42;;;;;;;3.80;0.70;;;;;;;20.52;50.69;101779.38;5008053;28;20396;-61
2021/09/29 06:49:08;;;;;;;3.47;0.70;;;;;;;20.53;51.09;101788.19;5019331;28;20812;-62
2021/09/29 06:51:34;;;;;;;1.90;0.60;;;;;;;20.52;50.97;101782.03;5010666;28;20049;-62
2021/09/29 06:53:59;;;;;;;2.83;0.70;;;;;;;20.52;51.00;101797.19;5027957;28;20061;-61
2021/09/29 06:56:25;;;;;;;1.88;0.75;;;;;;;20.52;50.95;101791.88;5010626;28;20037;-63
2021/09/29 06:58:52;;;;;;;3.55;0.70;;;;;;;20.52;50.75;101794.53;4994454;28;20493;-62
2021/09/29 07:01:18;;;;;;;4.13;0.93;;;;;;;20.53;50.96;101805.03;5007484;28;20119;-62
2021/09/29 07:03:44;;;;;;;4.72;0.73;;;;;;;20.52;50.84;101811.34;5007836;28;20064;-62
2021/09/29 07:06:10;;;;;;;6.63;1.10;;;;;;;20.53;50.91;101820.19;5028837;28;20046;-64
2021/09/29 07:08:36;;;;;;;6.75;0.90;;;;;;;20.54;50.81;101821.84;5031382;28;20046;-61
2021/09/29 07:11:02;;;;;;;6.63;0.88;;;;;;;20.54;50.88;101820.00;5028434;28;20038;-61
2021/09/29 07:13:28;;;;;;;4.00;0.95;;;;;;;20.53;50.99;101821.00;5030112;28;20118;-62
2021/09/29 07:15:54;;;;;;;5.25;1.08;;;;;;;20.54;51.42;101824.50;5031769;28;20447;-65
2021/09/29 07:18:20;;;;;;;5.03;1.10;;;;;;;20.55;51.65;101832.31;5032497;28;20029;-62
2021/09/29 07:20:45;;;;;;;6.50;1.50;;;;;;;20.54;51.38;101833.34;5013935;28;20400;-62
2021/09/29 07:23:11;;;;;;;13.07;1.55;;;;;;;20.56;51.47;101835.81;5031946;28;20208;-61
2021/09/29 07:25:38;;;;;;;9.20;1.05;;;;;;;20.56;51.57;101835.81;5031940;28;20056;-61
2021/09/29 07:28:05;;;;;;;11.20;1.30;;;;;;;20.56;51.49;101846.47;5014342;28;20053;-61
2021/09/29 07:30:30;;;;;;;9.48;1.30;;;;;;;20.55;51.12;101853.66;5031723;28;20034;-61
2021/09/29 07:32:58;;;;;;;5.80;1.25;;;;;;;20.53;50.60;101854.84;5031460;28;20603;-61
2021/09/29 07:35:23;;;;;;;5.45;1.55;;;;;;;20.49;50.43;101858.84;5032000;28;20148;-61
2021/09/29 07:37:50;;;;;;;8.32;1.17;;;;;;;20.44;49.72;101866.56;5020594;28;20383;-61
2021/09/29 07:40:16;;;;;;;4.47;1.20;;;;;;;20.37;49.49;101860.25;5013720;28;20039;-63
2021/09/29 07:42:41;;;;;;;4.90;1.10;;;;;;;20.31;48.99;101873.25;5031834;28;20033;-63
2021/09/29 07:45:08;;;;;;;6.93;1.35;;;;;;;20.25;48.98;101863.31;5031145;28;20091;-63
2021/09/29 07:47:35;;;;;;;6.68;1.58;;;;;;;20.22;48.79;101876.16;5007745;28;20037;-64
2021/09/29 07:50:00;;;;;;;5.55;1.45;;;;;;;20.17;48.48;101887.31;5013289;28;20484;-63
2021/09/29 07:52:26;;;;;;;6.20;1.40;;;;;;;20.14;48.34;101890.34;5028510;28;20029;-63
2021/09/29 07:54:53;;;;;;;10.07;1.50;;;;;;;20.14;47.77;101898.31;5027994;28;20033;-63
2021/09/29 07:57:19;;;;;;;7.75;1.20;;;;;;;20.12;47.94;101907.50;5029928;28;20048;-63
2021/09/29 07:59:45;;;;;;;7.43;1.70;;;;;;;20.10;47.66;101907.69;5029738;28;20732;-65
2021/09/29 08:02:10;;;;;;;6.82;1.27;;;;;;;20.08;47.17;101919.50;5023277;28;20067;-63
2021/09/29 08:04:36;;;;;;;7.75;1.20;;;;;;;20.04;47.03;101911.88;4995523;28;20056;-63
2021/09/29 08:07:01;;;;;;;4.88;1.27;;;;;;;20.01;46.71;101916.69;5029624;28;20441;-63
2021/09/29 08:09:30;;;;;;;7.93;1.40;;;;;;;19.97;46.65;101921.53;5030135;28;20479;-63
2021/09/29 08:11:55;;;;;;;9.10;1.20;;;;;;;19.94;46.14;101924.56;5012057;28;20037;-63
2021/09/29 08:14:22;;;;;;;6.45;1.60;;;;;;;19.92;45.77;101923.06;5029788;28;20488;-63
2021/09/29 08:16:48;;;;;;;5.72;1.58;;;;;;;19.90;46.16;101931.22;5029958;28;20049;-64
2021/09/29 08:19:14;;;;;;;4.85;1.10;;;;;;;19.88;45.72;101933.25;5012998;28;20041;-64
2021/09/29 08:21:40;;;;;;;5.78;1.35;;;;;;;19.84;45.43;101934.56;5031287;28;20474;-64
2021/09/29 08:24:16;;;;;;;4.35;1.08;;;;;;;19.83;45.16;101942.72;5030328;28;20603;-63
2021/09/29 08:26:56;;;;;;;6.80;1.30;;;;;;;19.83;45.13;101935.56;5030678;28;20041;-64
2021/09/29 08:29:45;;;;;;;5.00;1.17;;;;;;;19.84;45.16;101944.38;5030907;28;20508;-63
2021/09/29 08:32:22;;;;;;;4.65;1.40;;;;;;;19.83;44.99;101946.22;5015849;28;20370;-63
2021/09/29 08:34:53;;;;;;;5.68;1.10;;;;;;;19.84;45.03;101947.03;5030473;28;20033;-64
2021/09/29 08:37:32;;;;;;;3.72;1.10;;;;;;;19.83;44.77;101956.03;4997636;28;20481;-63
2021/09/29 08:40:10;;;;;;;6.68;1.13;;;;;;;19.81;44.61;101950.06;5030333;28;20041;-62
2021/09/29 08:42:57;;;;;;;6.70;1.45;;;;;;;19.79;44.80;101954.72;5030612;28;20034;-63
2021/09/29 08:55:51;;;;;;;;;;;;;;;19.64;44.74;101975.88;5030959;28;20374;-62
2021/09/29 09:17:37;;;;;;;6.82;1.40;;;;;;;19.69;43.89;101998.31;5030114;28;20102;-63
2021/09/29 09:20:20;;;;;;;4.55;1.27;;;;;;;19.67;43.59;102003.00;5011660;28;20536;-62
2021/09/29 09:22:53;;;;;;;4.00;1.15;;;;;;;19.68;43.52;101994.00;5030214;28;20037;-63
2021/09/29 09:25:40;;;;;;;4.43;1.20;;;;;;;19.64;43.49;101997.19;5030066;28;20057;-63
2021/09/29 09:28:11;;;;;;;4.55;1.30;;;;;;;19.69;43.61;101993.00;5011746;28;20140;-64
2021/09/29 09:30:38;;;;;;;3.80;1.10;;;;;;;19.71;43.82;101995.50;5029695;28;20037;-63
2021/09/29 09:33:04;;;;;;;4.40;1.00;;;;;;;19.72;43.31;101994.47;5029868;28;20072;-63
2021/09/29 09:35:47;;;;;;;7.07;1.30;;;;;;;19.69;43.36;101990.34;5029386;28;20029;-63
2021/09/29 09:38:18;;;;;;;4.53;1.40;;;;;;;19.77;43.38;101994.00;5029999;28;20060;-63
2021/09/29 09:40:43;;;;;;;8.15;1.48;;;;;;;19.79;43.61;102006.13;5029525;28;20404;-63
2021/09/29 09:43:09;;;;;;;5.25;1.10;;;;;;;19.81;43.43;102003.31;5029739;28;20042;-63
2021/09/29 09:45:44;;;;;;;2.95;1.20;;;;;;;19.83;43.39;102003.97;5011696;28;20041;-63
2021/09/29 09:48:27;;;;;;;5.00;1.40;;;;;;;19.80;43.53;102010.47;5011692;28;20420;-62
2021/09/29 09:51:02;;;;;;;4.47;1.10;;;;;;;19.78;43.38;102019.63;5028924;28;20044;-62
2021/09/29 09:53:27;;;;;;;4.30;1.45;;;;;;;19.80;43.47;102014.97;5029711;28;20025;-62
2021/09/29 09:55:53;;;;;;;5.15;1.42;;;;;;;19.80;43.36;102026.44;5029223;28;20037;-62
2021/09/29 09:58:18;;;;;;;8.32;1.88;;;;;;;19.78;42.94;102025.78;5011511;28;20037;-63
2021/09/29 10:00:44;;;;;;;5.03;1.20;;;;;;;19.79;43.09;102021.28;5007712;28;20049;-63
2021/09/29 10:03:11;;;;;;;6.63;1.23;;;;;;;19.80;43.37;102031.75;5029340;28;20037;-62
2021/09/29 10:05:38;;;;;;;5.18;1.10;;;;;;;19.80;43.29;102030.94;4995144;28;20041;-62
2021/09/29 10:08:07;;;;;;;5.13;1.33;;;;;;;19.81;43.36;102029.94;5011413;28;20525;-62
2021/09/29 10:13:29;;;;;;;3.70;1.02;;;;;;;19.81;43.05;102037.91;5028855;28;20049;-62
2021/09/29 10:27:16;;;;;;;6.60;1.45;;;;;;;19.78;43.21;102051.56;5028786;28;20033;-62
2021/09/29 10:29:45;;;;;;;6.35;0.95;;;;;;;19.80;43.02;102046.91;5025691;28;20485;-62
2021/09/29 10:32:24;;;;;;;9.60;1.20;;;;;;;19.81;42.92;102053.91;5028547;28;20099;-62
2021/09/29 10:35:47;;;;;;;4.75;1.02;;;;;;;19.77;42.93;102050.75;5028825;28;20038;-62
2021/09/29 10:44:00;;;;;;;5.22;1.10;;;;;;;19.75;42.83;102060.72;5028869;28;20083;-62
2021/09/29 10:49:05;;;;;;;4.95;1.02;;;;;;;19.79;42.41;102064.72;5031037;28;20041;-64
2021/09/29 11:30:27;;;;;;;4.63;1.02;;;;;;;19.89;41.98;102096.50;5012041;28;20069;-62
2021/09/29 11:33:00;;;;;;;4.70;1.10;;;;;;;19.89;41.85;102091.19;5012630;28;20052;-62
2021/09/29 12:07:57;;;;;;;13.90;2.38;;;;;;;19.90;41.76;102117.66;5031218;28;20511;-63
2021/09/29 12:12:17;;;;;;;7.50;1.60;;;;;;;19.95;41.71;102123.28;5030621;28;20499;-63
2021/09/29 12:15:01;;;;;;;6.45;1.45;;;;;;;19.92;42.02;102118.31;5011004;28;20042;-63
2021/09/29 12:17:31;;;;;;;6.97;1.85;;;;;;;19.97;41.75;102131.13;5018207;28;20106;-64
2021/09/29 12:19:59;;;;;;;4.90;1.30;;;;;;;19.98;41.58;102127.44;5030379;28;20052;-64
2021/09/29 12:22:32;;;;;;;4.75;1.35;;;;;;;19.99;41.87;102137.09;5013878;28;20040;-62
2021/09/29 12:25:05;;;;;;;3.40;1.52;;;;;;;20.00;41.50;102136.09;5015598;28;20096;-64
2021/09/29 12:27:41;;;;;;;3.83;1.10;;;;;;;20.01;41.86;102141.25;5010112;28;20030;-63
2021/09/29 12:30:20;;;;;;;5.53;1.10;;;;;;;19.98;41.51;102138.94;5009312;28;20076;-64
2021/09/29 12:33:19;;;;;;;5.72;1.55;;;;;;;19.99;41.83;102145.09;4993555;28;20501;-63
2021/09/29 12:35:50;;;;;;;4.93;1.17;;;;;;;19.98;41.56;102135.44;5010743;28;20041;-64
2021/09/29 12:38:16;;;;;;;6.55;1.52;;;;;;;19.99;41.56;102140.59;5011163;28;20040;-63
2021/09/29 12:40:44;;;;;;;9.30;1.60;;;;;;;19.99;41.57;102137.94;4993154;28;20486;-63
2021/09/29 12:43:10;;;;;;;5.65;1.20;;;;;;;19.98;41.52;102133.59;5010793;28;20029;-64
2021/09/29 12:45:38;;;;;;;6.57;1.67;;;;;;;19.98;41.82;102136.28;5009881;28;20041;-64
2021/09/29 12:48:06;;;;;;;8.68;1.50;;;;;;;20.00;41.53;102147.59;5010676;28;20042;-64
2021/09/29 12:50:54;;;;;;;4.80;1.10;;;;;;;20.00;41.46;102136.09;5010276;28;20068;-63
2021/09/29 12:53:28;;;;;;;3.53;1.15;;;;;;;20.01;41.88;102145.75;5010789;28;20041;-65
2021/09/29 12:56:03;;;;;;;6.32;1.40;;;;;;;20.02;41.84;102144.75;5019462;28;20091;-64
2021/09/29 12:58:28;;;;;;;;;;;;;;;19.91;41.88;102142.44;4994289;28;20037;-65
2021/09/29 13:00:59;;;;;;;6.82;1.30;;;;;;;20.00;41.69;102152.09;5013567;28;19975;-65
2021/09/29 13:03:25;;;;;;;6.53;1.52;;;;;;;19.98;41.62;102154.09;5017837;28;20544;-64
2021/09/29 13:05:50;;;;;;;10.27;1.63;;;;;;;19.95;41.36;102152.59;5009853;28;20034;-64
2021/09/29 13:08:17;;;;;;;7.38;1.42;;;;;;;19.94;41.46;102160.75;4992500;28;20457;-64
2021/09/29 13:10:43;;;;;;;4.13;1.10;;;;;;;19.93;41.58;102157.25;5009655;28;20485;-64
2021/09/29 13:13:12;;;;;;;8.55;1.30;;;;;;;19.95;41.50;102162.41;5010085;28;20034;-63
2021/09/29 13:15:43;;;;;;;9.07;1.73;;;;;;;19.94;41.51;102150.09;5010418;28;20040;-64
2021/09/29 13:18:13;;;;;;;7.45;1.73;;;;;;;19.95;41.35;102160.56;5016385;28;20065;-64
2021/09/29 13:20:40;;;;;;;11.20;1.60;;;;;;;19.95;41.55;102162.41;5029690;28;20033;-64
2021/09/29 13:23:21;;;;;;;8.25;1.20;;;;;;;19.96;41.42;102161.41;5007624;28;20092;-65
2021/09/29 13:36:48;;;;;;;4.95;1.00;;;;;;;19.91;41.20;102150.44;4994794;28;19979;-62
2021/09/29 13:39:16;;;;;;;4.70;1.38;;;;;;;19.89;41.22;102160.44;5009868;28;20044;-63
2021/09/29 13:41:43;;;;;;;5.80;1.30;;;;;;;19.90;41.32;102151.44;5010408;28;20041;-63
2021/09/29 13:44:11;;;;;;;10.02;1.60;;;;;;;19.91;40.94;102150.44;5002398;28;20060;-63
2021/09/29 13:46:37;;;;;;;5.45;0.82;;;;;;;19.92;40.86;102155.59;4992202;28;20034;-63